Time;durP1;ratioP1;P1;durP2;ratioP2;P2;SDS_P1;SDS_P2;PMS_P1;PMS_P2;Temp;Humidity;BMP_temperature;BMP_pressure;BME280_temperature;BME280_humidity;BME280_pressure;Samples;Min_cycle;Max_cycle;Signal;HPM_P1;HPM_P2
2022/05/19 00:04:39;;;;;;;2.50;1.88;;;;;;;;;;10331235;28;20038;-45
2022/05/19 00:09:40;;;;;;;3.42;2.05;;;;;;;;;;10330850;28;20026;-43
2022/05/19 00:14:41;;;;;;;4.97;2.33;;;;;;;;;;10331193;28;20038;-46
2022/05/19 00:19:42;;;;;;;3.03;2.03;;;;;;;;;;10331209;28;20061;-45
2022/05/19 00:24:43;;;;;;;4.10;1.90;;;;;;;;;;10331280;28;20036;-46
2022/05/19 00:29:43;;;;;;;2.90;2.00;;;;;;;;;;10331068;28;20041;-46
2022/05/19 00:34:44;;;;;;;3.65;1.92;;;;;;;;;;10331022;28;20509;-47
2022/05/19 00:39:44;;;;;;;2.13;1.85;;;;;;;;;;10330638;28;20030;-49
2022/05/19 00:44:45;;;;;;;4.10;1.85;;;;;;;;;;10330205;28;20081;-44
2022/05/19 00:49:48;;;;;;;7.03;1.98;;;;;;;;;;10328815;28;20045;-47
2022/05/19 00:54:59;;;;;;;3.38;1.90;;;;;;;;;;10307054;28;20030;-46
2022/05/19 01:00:08;;;;;;;5.25;1.80;;;;;;;;;;10327585;28;20113;-45
2022/05/19 01:05:14;;;;;;;5.13;1.85;;;;;;;;;;10311977;28;20433;-44
2022/05/19 01:10:15;;;;;;;6.78;1.85;;;;;;;;;;10328776;28;20034;-44
2022/05/19 01:15:17;;;;;;;7.70;2.00;;;;;;;;;;10328345;28;20038;-46
2022/05/19 01:20:22;;;;;;;4.22;2.35;;;;;;;;;;10311375;28;20074;-43
2022/05/19 01:25:54;;;;;;;12.20;2.25;;;;;;;;;;10311813;28;20034;-46
2022/05/19 01:30:54;;;;;;;1.80;1.63;;;;;;;;;;10328763;28;20544;-46
2022/05/19 01:35:55;;;;;;;9.90;1.92;;;;;;;;;;10328628;28;20023;-46
2022/05/19 01:41:22;;;;;;;12.10;1.73;;;;;;;;;;10328365;28;20167;-46
2022/05/19 01:46:33;;;;;;;3.28;1.75;;;;;;;;;;10317356;28;20046;-46
2022/05/19 01:51:55;;;;;;;2.90;1.70;;;;;;;;;;10328119;28;20080;-48
2022/05/19 01:57:04;;;;;;;7.90;2.00;;;;;;;;;;10319820;28;20100;-46
2022/05/19 02:02:48;;;;;;;6.13;2.03;;;;;;;;;;10324152;28;20041;-47
2022/05/19 02:07:53;;;;;;;4.97;1.80;;;;;;;;;;10272593;28;20031;-46
2022/05/19 02:12:57;;;;;;;1.65;1.55;;;;;;;;;;10317766;28;20106;-47
2022/05/19 02:17:58;;;;;;;5.80;1.90;;;;;;;;;;10309928;28;20027;-46
2022/05/19 02:23:00;;;;;;;3.80;2.17;;;;;;;;;;10327167;28;20076;-47
2022/05/19 02:28:15;;;;;;;2.85;1.77;;;;;;;;;;10309757;28;20035;-44
2022/05/19 02:33:18;;;;;;;2.40;1.60;;;;;;;;;;10309706;28;20042;-46
2022/05/19 02:38:20;;;;;;;6.57;1.88;;;;;;;;;;10327313;28;20033;-46
2022/05/19 02:43:22;;;;;;;9.75;1.98;;;;;;;;;;10326252;28;20030;-47
2022/05/19 02:48:23;;;;;;;5.80;1.85;;;;;;;;;;10327161;28;20035;-46
2022/05/19 02:53:24;;;;;;;4.90;1.42;;;;;;;;;;10326527;28;20026;-46
2022/05/19 02:58:24;;;;;;;3.03;1.55;;;;;;;;;;10326851;28;20467;-47
2022/05/19 03:03:25;;;;;;;1.52;1.42;;;;;;;;;;10325613;28;20367;-46
2022/05/19 03:08:26;;;;;;;3.03;1.50;;;;;;;;;;10326858;28;20502;-47
2022/05/19 03:13:26;;;;;;;1.60;1.38;;;;;;;;;;10330331;28;20058;-46
2022/05/19 03:18:27;;;;;;;2.03;1.40;;;;;;;;;;10332967;28;20038;-47
2022/05/19 03:23:27;;;;;;;1.85;1.67;;;;;;;;;;10333435;28;20512;-45
2022/05/19 03:28:28;;;;;;;4.80;1.45;;;;;;;;;;10333475;28;20081;-46
2022/05/19 03:33:29;;;;;;;2.40;1.38;;;;;;;;;;10332789;28;20610;-46
2022/05/19 03:38:29;;;;;;;1.50;1.30;;;;;;;;;;10333343;28;20459;-46
2022/05/19 03:43:31;;;;;;;1.50;1.40;;;;;;;;;;10332564;28;20038;-45
2022/05/19 03:48:40;;;;;;;1.77;1.35;;;;;;;;;;10332915;28;20025;-47
2022/05/19 03:53:41;;;;;;;2.30;1.40;;;;;;;;;;10332402;28;20030;-45
2022/05/19 03:58:41;;;;;;;2.22;1.40;;;;;;;;;;10332735;28;20030;-46
2022/05/19 04:03:42;;;;;;;2.75;1.23;;;;;;;;;;10331727;28;20030;-44
2022/05/19 04:08:43;;;;;;;3.58;1.52;;;;;;;;;;10332174;28;20034;-47
2022/05/19 04:13:44;;;;;;;4.35;1.40;;;;;;;;;;10331678;28;20609;-46
2022/05/19 04:18:44;;;;;;;1.40;1.30;;;;;;;;;;10331864;28;20450;-47
2022/05/19 04:23:45;;;;;;;1.35;1.10;;;;;;;;;;10330178;28;20041;-43
2022/05/19 04:28:46;;;;;;;1.45;1.30;;;;;;;;;;10338852;28;20030;-45
2022/05/19 04:33:46;;;;;;;6.88;1.67;;;;;;;;;;10362483;28;20085;-45
2022/05/19 04:38:47;;;;;;;1.75;1.10;;;;;;;;;;10330916;28;20034;-44
2022/05/19 04:43:47;;;;;;;1.63;1.13;;;;;;;;;;10297797;28;20038;-46
2022/05/19 04:48:48;;;;;;;2.13;1.20;;;;;;;;;;10317976;28;20026;-46
2022/05/19 04:53:49;;;;;;;1.98;1.38;;;;;;;;;;10317163;28;20045;-45
2022/05/19 04:58:49;;;;;;;1.63;1.40;;;;;;;;;;10320162;28;20042;-46
2022/05/19 05:03:50;;;;;;;3.15;1.48;;;;;;;;;;10307963;28;20033;-45
2022/05/19 05:08:50;;;;;;;2.92;1.35;;;;;;;;;;10300541;28;20022;-44
2022/05/19 05:13:51;;;;;;;2.17;1.58;;;;;;;;;;10292450;28;20034;-48
2022/05/19 05:18:52;;;;;;;5.07;1.45;;;;;;;;;;10296151;28;20499;-43
2022/05/19 05:23:52;;;;;;;8.82;2.25;;;;;;;;;;10327538;28;20054;-42
2022/05/19 05:28:53;;;;;;;9.88;1.90;;;;;;;;;;10325027;28;20026;-41
2022/05/19 05:33:54;;;;;;;9.90;2.10;;;;;;;;;;10326637;28;20033;-43
2022/05/19 05:38:54;;;;;;;4.28;1.80;;;;;;;;;;10325718;28;20478;-44
2022/05/19 05:43:55;;;;;;;18.23;2.63;;;;;;;;;;10330037;28;20117;-45
2022/05/19 05:48:55;;;;;;;11.98;2.30;;;;;;;;;;10323632;28;20113;-47
2022/05/19 05:53:56;;;;;;;7.40;2.15;;;;;;;;;;10325405;28;20023;-47
2022/05/19 05:58:57;;;;;;;16.95;2.83;;;;;;;;;;10327147;28;20049;-47
2022/05/19 06:03:57;;;;;;;3.83;2.17;;;;;;;;;;10308756;28;20057;-46
2022/05/19 06:08:58;;;;;;;9.40;1.98;;;;;;;;;;10327194;28;20037;-46
2022/05/19 06:13:59;;;;;;;16.23;3.67;;;;;;;;;;10327367;28;20042;-45
2022/05/19 06:18:59;;;;;;;13.52;2.55;;;;;;;;;;10307770;28;20621;-44
2022/05/19 06:24:00;;;;;;;14.35;2.53;;;;;;;;;;10290059;28;20046;-44
2022/05/19 06:29:00;;;;;;;13.45;2.60;;;;;;;;;;10327183;28;20394;-43
2022/05/19 06:34:01;;;;;;;8.00;1.92;;;;;;;;;;10326779;28;20053;-42
2022/05/19 06:39:03;;;;;;;7.88;2.40;;;;;;;;;;10326998;28;20553;-43
2022/05/19 06:44:04;;;;;;;11.43;2.13;;;;;;;;;;10326612;28;20065;-42
2022/05/19 06:49:05;;;;;;;9.15;2.00;;;;;;;;;;10316194;28;20172;-42
2022/05/19 06:54:05;;;;;;;6.03;1.80;;;;;;;;;;10326920;28;20398;-44
2022/05/19 06:59:07;;;;;;;7.65;1.70;;;;;;;;;;10330420;28;20498;-43
2022/05/19 07:04:08;;;;;;;7.65;2.15;;;;;;;;;;10333871;28;20525;-42
2022/05/19 07:09:08;;;;;;;4.07;1.80;;;;;;;;;;10334290;28;20034;-42
2022/05/19 07:14:12;;;;;;;7.30;2.33;;;;;;;;;;10333831;28;20038;-42
2022/05/19 07:24:33;;;;;;;4.55;1.60;;;;;;;;;;10333524;28;20043;-43
2022/05/19 07:29:34;;;;;;;4.85;1.70;;;;;;;;;;10333259;28;20088;-42
2022/05/19 07:34:38;;;;;;;6.85;2.10;;;;;;;;;;10332951;28;20046;-42
2022/05/19 07:39:39;;;;;;;6.18;1.90;;;;;;;;;;10332811;28;20037;-42
2022/05/19 07:44:41;;;;;;;2.90;1.60;;;;;;;;;;10332361;28;20053;-42
2022/05/19 07:49:42;;;;;;;4.28;1.80;;;;;;;;;;10332666;28;20073;-42
2022/05/19 07:54:42;;;;;;;2.05;1.63;;;;;;;;;;10331918;28;20445;-43
2022/05/19 07:59:43;;;;;;;7.78;2.08;;;;;;;;;;10291488;28;20646;-43
2022/05/19 08:04:43;;;;;;;9.30;2.38;;;;;;;;;;10291871;28;20380;-42
2022/05/19 08:20:23;;;;;;;7.90;1.85;;;;;;;;;;10331128;28;20197;-43
2022/05/19 08:25:25;;;;;;;2.97;1.80;;;;;;;;;;10354742;28;20043;-42
2022/05/19 08:30:27;;;;;;;4.15;1.92;;;;;;;;;;10355065;28;20366;-43
2022/05/19 08:35:27;;;;;;;14.85;2.03;;;;;;;;;;10361189;28;20034;-42
2022/05/19 08:40:28;;;;;;;5.10;2.10;;;;;;;;;;10331122;28;20057;-43
2022/05/19 08:45:39;;;;;;;8.13;2.20;;;;;;;;;;10313291;28;20113;-42
2022/05/19 08:50:45;;;;;;;6.03;1.90;;;;;;;;;;10365799;28;20041;-44
2022/05/19 08:56:00;;;;;;;4.25;2.42;;;;;;;;;;10331768;28;20065;-42
2022/05/19 09:01:36;;;;;;;9.85;2.65;;;;;;;;;;10329877;28;20118;-44
2022/05/19 09:12:20;;;;;;;4.90;2.60;;;;;;;;;;10327381;28;20109;-42
2022/05/19 09:17:27;;;;;;;4.57;2.25;;;;;;;;;;10328921;28;20402;-42
2022/05/19 09:22:33;;;;;;;5.93;2.22;;;;;;;;;;10327249;28;20093;-42
2022/05/19 09:27:39;;;;;;;10.05;2.25;;;;;;;;;;10328560;28;20042;-43
2022/05/19 09:32:52;;;;;;;4.28;2.15;;;;;;;;;;10309328;28;20112;-42
2022/05/19 09:38:17;;;;;;;4.18;2.20;;;;;;;;;;10311522;28;20054;-43
2022/05/19 09:43:25;;;;;;;5.97;2.13;;;;;;;;;;10328021;28;20104;-42
2022/05/19 09:48:27;;;;;;;;;;;;;;;;;;10329125;28;20061;-42
2022/05/19 09:53:36;;;;;;;2.35;1.90;;;;;;;;;;10327138;28;19945;-42
2022/05/19 09:58:45;;;;;;;5.00;2.10;;;;;;;;;;10291312;28;20502;-42
2022/05/19 10:04:00;;;;;;;3.15;1.85;;;;;;;;;;10355776;28;20039;-42
2022/05/19 10:09:14;;;;;;;4.70;2.03;;;;;;;;;;10312446;28;20066;-42
2022/05/19 10:14:26;;;;;;;6.55;2.20;;;;;;;;;;10309740;28;20030;-41
2022/05/19 10:19:39;;;;;;;4.40;2.17;;;;;;;;;;10326947;28;20093;-42
2022/05/19 10:25:13;;;;;;;4.28;2.00;;;;;;;;;;10315086;28;20030;-42
2022/05/19 10:36:16;;;;;;;8.10;2.10;;;;;;;;;;10313004;28;20058;-43
2022/05/19 10:42:06;;;;;;;6.18;2.17;;;;;;;;;;10310359;28;20137;-43
2022/05/19 10:47:34;;;;;;;4.20;1.90;;;;;;;;;;10297872;28;20490;-44
2022/05/19 10:53:17;;;;;;;4.65;2.38;;;;;;;;;;10322722;28;20683;-42
2022/05/19 10:58:54;;;;;;;4.20;2.00;;;;;;;;;;10286368;28;20360;-43
2022/05/19 11:04:01;;;;;;;2.22;1.88;;;;;;;;;;10315055;28;20045;-42
2022/05/19 11:09:39;;;;;;;7.53;2.33;;;;;;;;;;10302400;28;20037;-43
2022/05/19 11:14:52;;;;;;;;;;;;;;;;;;10291998;28;20074;-42
2022/05/19 11:20:06;;;;;;;14.18;2.20;;;;;;;;;;10286159;28;19922;-43
2022/05/19 11:30:58;;;;;;;4.63;2.17;;;;;;;;;;10275403;28;20503;-43
2022/05/19 11:36:10;;;;;;;5.22;2.10;;;;;;;;;;10279061;28;20049;-43
2022/05/19 11:41:29;;;;;;;7.03;2.50;;;;;;;;;;10291122;28;20105;-43
2022/05/19 11:46:36;;;;;;;4.45;2.33;;;;;;;;;;10328524;28;20277;-43
2022/05/19 11:57:23;;;;;;;3.03;2.20;;;;;;;;;;10317594;28;20042;-43
2022/05/19 12:02:36;;;;;;;4.05;2.22;;;;;;;;;;10314576;28;20278;-43
2022/05/19 12:07:53;;;;;;;6.47;2.10;;;;;;;;;;10329157;28;20018;-43
2022/05/19 12:13:00;;;;;;;6.55;2.00;;;;;;;;;;10313846;28;20529;-42
2022/05/19 12:18:32;;;;;;;9.65;2.20;;;;;;;;;;10329769;28;20026;-43
2022/05/19 12:23:39;;;;;;;2.90;2.00;;;;;;;;;;10320612;28;20156;-44
2022/05/19 12:29:02;;;;;;;2.88;2.10;;;;;;;;;;10329612;28;20559;-43
2022/05/19 12:34:05;;;;;;;5.75;2.22;;;;;;;;;;10328823;28;20034;-45
2022/05/19 12:39:28;;;;;;;3.35;2.10;;;;;;;;;;10312554;28;20072;-42
2022/05/19 12:44:35;;;;;;;8.32;2.30;;;;;;;;;;10328622;28;20049;-42
2022/05/19 12:49:36;;;;;;;5.22;2.05;;;;;;;;;;10332144;28;20038;-43
2022/05/19 12:55:11;;;;;;;4.72;2.10;;;;;;;;;;10341476;28;20110;-42
2022/05/19 13:00:32;;;;;;;4.10;2.00;;;;;;;;;;10325658;28;20072;-42
2022/05/19 13:05:53;;;;;;;3.97;2.30;;;;;;;;;;10336673;28;20085;-43
2022/05/19 13:10:55;;;;;;;5.53;1.83;;;;;;;;;;10326295;28;20030;-44
2022/05/19 13:15:59;;;;;;;2.80;1.75;;;;;;;;;;10326233;28;20393;-43
2022/05/19 13:21:34;;;;;;;18.48;2.65;;;;;;;;;;10326591;28;20042;-43
2022/05/19 13:26:39;;;;;;;6.00;2.20;;;;;;;;;;10315300;28;20026;-42
2022/05/19 13:32:02;;;;;;;2.85;2.20;;;;;;;;;;10311989;28;20030;-43
2022/05/19 13:37:03;;;;;;;6.03;2.22;;;;;;;;;;10328122;28;20030;-42
2022/05/19 13:42:10;;;;;;;6.38;2.47;;;;;;;;;;10328538;28;20052;-42
2022/05/19 13:47:22;;;;;;;3.25;2.10;;;;;;;;;;10328427;28;20033;-43
2022/05/19 13:52:28;;;;;;;3.95;1.83;;;;;;;;;;10328117;28;20026;-43
2022/05/19 13:57:34;;;;;;;4.00;2.30;;;;;;;;;;10310552;28;20058;-43
2022/05/19 14:02:40;;;;;;;6.10;2.42;;;;;;;;;;10310583;28;20524;-43
2022/05/19 14:07:42;;;;;;;4.75;2.50;;;;;;;;;;10309857;28;20034;-43
2022/05/19 14:12:52;;;;;;;2.72;2.03;;;;;;;;;;10351837;28;20629;-43
2022/05/19 14:18:01;;;;;;;4.38;2.10;;;;;;;;;;10329391;28;20027;-43
2022/05/19 14:23:11;;;;;;;4.70;2.17;;;;;;;;;;10327734;28;20169;-43
2022/05/19 14:28:43;;;;;;;3.25;2.00;;;;;;;;;;10309969;28;20423;-43
2022/05/19 14:34:02;;;;;;;4.18;2.05;;;;;;;;;;10311118;28;20066;-42
2022/05/19 14:39:36;;;;;;;3.10;1.75;;;;;;;;;;10327656;28;20034;-43
2022/05/19 14:44:44;;;;;;;3.10;2.10;;;;;;;;;;10335377;28;20042;-43
2022/05/19 14:50:04;;;;;;;4.93;2.33;;;;;;;;;;10311805;28;20034;-42
2022/05/19 14:55:24;;;;;;;2.75;1.92;;;;;;;;;;10323011;28;20546;-42
2022/05/19 15:00:29;;;;;;;3.92;1.90;;;;;;;;;;10319939;28;20539;-42
2022/05/19 15:05:31;;;;;;;4.88;2.10;;;;;;;;;;10293983;28;20509;-42
2022/05/19 15:10:33;;;;;;;4.93;1.77;;;;;;;;;;10280601;28;20390;-42
2022/05/19 15:15:37;;;;;;;8.10;2.00;;;;;;;;;;10299869;28;20026;-43
2022/05/19 15:20:38;;;;;;;2.55;2.03;;;;;;;;;;10315273;28;20491;-43
2022/05/19 15:25:39;;;;;;;7.68;2.22;;;;;;;;;;10293164;28;20042;-43
2022/05/19 15:30:41;;;;;;;3.17;1.98;;;;;;;;;;10295896;28;20077;-43
2022/05/19 15:35:42;;;;;;;4.30;2.00;;;;;;;;;;10316400;28;20423;-42
2022/05/19 15:40:43;;;;;;;3.95;2.00;;;;;;;;;;10275659;28;20038;-43
2022/05/19 15:45:43;;;;;;;4.93;2.42;;;;;;;;;;10332447;28;20046;-43
2022/05/19 15:50:48;;;;;;;3.72;2.20;;;;;;;;;;10332483;28;20126;-43
2022/05/19 15:55:50;;;;;;;5.57;2.05;;;;;;;;;;10305514;28;20604;-43
2022/05/19 16:00:53;;;;;;;7.68;2.60;;;;;;;;;;10332475;28;20026;-43
2022/05/19 16:05:57;;;;;;;3.78;1.90;;;;;;;;;;10314116;28;20414;-43
2022/05/19 16:10:59;;;;;;;4.53;2.05;;;;;;;;;;10303462;28;20047;-44
2022/05/19 16:15:59;;;;;;;4.13;2.15;;;;;;;;;;10317128;28;20038;-43
2022/05/19 16:21:01;;;;;;;3.88;2.20;;;;;;;;;;10330587;28;20461;-43
2022/05/19 16:26:01;;;;;;;7.50;2.15;;;;;;;;;;10322807;28;20027;-43
2022/05/19 16:31:03;;;;;;;3.53;2.00;;;;;;;;;;10306614;28;20057;-43
2022/05/19 16:36:05;;;;;;;6.55;2.42;;;;;;;;;;10311668;28;20035;-42
2022/05/19 16:41:05;;;;;;;4.22;2.00;;;;;;;;;;10300261;28;20038;-42
2022/05/19 16:46:06;;;;;;;10.27;2.00;;;;;;;;;;10329714;28;20520;-43
2022/05/19 16:51:07;;;;;;;3.85;2.10;;;;;;;;;;10330095;28;20081;-42
2022/05/19 17:01:26;;;;;;;6.50;2.40;;;;;;;;;;10298449;28;20575;-43
2022/05/19 17:06:27;;;;;;;2.75;1.85;;;;;;;;;;10301117;28;20023;-42
2022/05/19 17:11:27;;;;;;;6.43;1.92;;;;;;;;;;10295545;28;20034;-43
2022/05/19 17:16:28;;;;;;;6.72;2.00;;;;;;;;;;10297184;28;20034;-43
2022/05/19 17:21:29;;;;;;;8.30;2.05;;;;;;;;;;10321969;28;20062;-43
2022/05/19 17:26:30;;;;;;;6.55;1.70;;;;;;;;;;10325837;28;20030;-44
2022/05/19 17:31:30;;;;;;;6.65;2.03;;;;;;;;;;10326733;28;20121;-43
2022/05/19 17:36:33;;;;;;;6.00;1.77;;;;;;;;;;10316717;28;20035;-43
2022/05/19 17:41:34;;;;;;;3.65;1.77;;;;;;;;;;10323244;28;20494;-43
2022/05/19 17:46:37;;;;;;;7.72;1.52;;;;;;;;;;10339972;28;20045;-43
2022/05/19 17:51:38;;;;;;;2.92;1.58;;;;;;;;;;10327687;28;20040;-44
2022/05/19 17:56:40;;;;;;;3.25;1.77;;;;;;;;;;10294579;28;20038;-44
2022/05/19 18:01:41;;;;;;;5.88;1.60;;;;;;;;;;10303039;28;20069;-42
2022/05/19 18:06:42;;;;;;;6.30;2.00;;;;;;;;;;10297169;28;20034;-43
2022/05/19 18:11:42;;;;;;;5.43;1.83;;;;;;;;;;10307576;28;20027;-44
2022/05/19 18:22:02;;;;;;;2.58;1.60;;;;;;;;;;10318096;28;20038;-43
2022/05/19 18:27:05;;;;;;;3.88;1.73;;;;;;;;;;10313391;28;20482;-43
2022/05/19 18:32:06;;;;;;;2.38;1.60;;;;;;;;;;10272945;28;20078;-43
2022/05/19 18:37:07;;;;;;;7.38;2.10;;;;;;;;;;10326751;28;20440;-43
2022/05/19 18:47:31;;;;;;;3.10;1.55;;;;;;;;;;10301984;28;20122;-42
2022/05/19 18:52:31;;;;;;;3.45;1.60;;;;;;;;;;10334610;28;20580;-41
2022/05/19 18:57:32;;;;;;;7.57;1.90;;;;;;;;;;10322520;28;20109;-42
2022/05/19 19:02:34;;;;;;;7.25;2.10;;;;;;;;;;10318344;28;20034;-41
2022/05/19 19:07:34;;;;;;;10.25;2.20;;;;;;;;;;10341218;28;20492;-42
2022/05/19 19:12:35;;;;;;;13.48;2.10;;;;;;;;;;10330921;28;20026;-43
2022/05/19 19:17:35;;;;;;;17.02;2.22;;;;;;;;;;10336333;28;20084;-42
2022/05/19 19:22:36;;;;;;;5.00;1.90;;;;;;;;;;10306789;28;20106;-42
2022/05/19 19:27:36;;;;;;;21.80;2.70;;;;;;;;;;10321188;28;20037;-42
2022/05/19 19:32:38;;;;;;;13.90;3.05;;;;;;;;;;10331594;28;20124;-42
2022/05/19 19:37:41;;;;;;;5.35;2.08;;;;;;;;;;10334113;28;20041;-43
2022/05/19 19:42:41;;;;;;;7.57;2.33;;;;;;;;;;10334421;28;20038;-43
2022/05/19 19:47:42;;;;;;;6.40;2.20;;;;;;;;;;10328678;28;20061;-42
2022/05/19 19:52:43;;;;;;;6.32;2.20;;;;;;;;;;10322044;28;20023;-43
2022/05/19 19:57:45;;;;;;;16.40;2.25;;;;;;;;;;10325409;28;20045;-42
2022/05/19 20:02:45;;;;;;;8.25;2.17;;;;;;;;;;10325769;28;20598;-42
2022/05/19 20:07:46;;;;;;;5.40;2.00;;;;;;;;;;10320505;28;20038;-42
2022/05/19 20:12:48;;;;;;;6.22;2.63;;;;;;;;;;10313430;28;20038;-42
2022/05/19 20:17:49;;;;;;;9.52;2.33;;;;;;;;;;10315209;28;20057;-42
2022/05/19 20:22:51;;;;;;;8.90;2.10;;;;;;;;;;10317294;28;20068;-42
2022/05/19 20:27:51;;;;;;;6.28;1.95;;;;;;;;;;10316937;28;20565;-43
2022/05/19 20:32:52;;;;;;;4.75;1.88;;;;;;;;;;10300878;28;20088;-43
2022/05/19 20:37:53;;;;;;;3.53;1.85;;;;;;;;;;10325552;28;20050;-43
2022/05/19 20:42:53;;;;;;;8.75;1.92;;;;;;;;;;10322231;28;20038;-42
2022/05/19 20:47:54;;;;;;;10.55;1.92;;;;;;;;;;10298951;28;20034;-42
2022/05/19 20:52:55;;;;;;;5.10;1.77;;;;;;;;;;10302600;28;20023;-43
2022/05/19 20:57:56;;;;;;;4.10;2.00;;;;;;;;;;10303881;28;20054;-43
2022/05/19 21:02:57;;;;;;;5.65;2.15;;;;;;;;;;10308436;28;20062;-41
2022/05/19 21:07:58;;;;;;;5.55;1.75;;;;;;;;;;10304541;28;20077;-41
2022/05/19 21:12:59;;;;;;;5.03;2.00;;;;;;;;;;10295045;28;20031;-41
2022/05/19 21:18:00;;;;;;;5.18;1.92;;;;;;;;;;10311446;28;20030;-40
2022/05/19 21:23:01;;;;;;;4.55;1.77;;;;;;;;;;10320425;28;20137;-41
2022/05/19 21:28:01;;;;;;;8.60;2.00;;;;;;;;;;10317139;28;20106;-43
2022/05/19 21:33:02;;;;;;;8.32;2.05;;;;;;;;;;10306037;28;20030;-43
2022/05/19 21:38:04;;;;;;;2.53;1.65;;;;;;;;;;10307437;28;20178;-41
2022/05/19 21:43:05;;;;;;;6.50;2.08;;;;;;;;;;10333702;28;20049;-42
2022/05/19 21:48:07;;;;;;;7.35;1.85;;;;;;;;;;10330399;28;20034;-42
2022/05/19 21:58:28;;;;;;;5.80;1.90;;;;;;;;;;10287713;28;20495;-43
2022/05/19 22:03:29;;;;;;;13.93;2.30;;;;;;;;;;10291384;28;20026;-43
2022/05/19 22:08:29;;;;;;;8.70;2.45;;;;;;;;;;10291538;28;20407;-43
2022/05/19 22:13:31;;;;;;;4.30;1.58;;;;;;;;;;10314099;28;20069;-42
2022/05/19 22:18:32;;;;;;;6.05;1.77;;;;;;;;;;10323268;28;20034;-42
2022/05/19 22:23:33;;;;;;;5.53;1.80;;;;;;;;;;10326838;28;20104;-42
2022/05/19 22:28:39;;;;;;;4.50;1.63;;;;;;;;;;10327341;28;20058;-42
2022/05/19 22:33:40;;;;;;;3.53;1.80;;;;;;;;;;10326956;28;20049;-42
2022/05/19 22:38:41;;;;;;;5.57;1.80;;;;;;;;;;10349746;28;20034;-42
2022/05/19 22:43:41;;;;;;;2.88;1.58;;;;;;;;;;10343871;28;20050;-42
2022/05/19 22:48:42;;;;;;;1.92;1.70;;;;;;;;;;10326632;28;20117;-42
2022/05/19 22:53:42;;;;;;;4.28;1.88;;;;;;;;;;10326487;28;20026;-42
2022/05/19 22:58:43;;;;;;;3.42;1.60;;;;;;;;;;10324220;28;20030;-42
2022/05/19 23:03:44;;;;;;;2.25;1.40;;;;;;;;;;10323653;28;20026;-41
2022/05/19 23:08:44;;;;;;;3.65;1.73;;;;;;;;;;10323357;28;20037;-42
2022/05/19 23:13:45;;;;;;;4.28;1.50;;;;;;;;;;10325535;28;20033;-42
2022/05/19 23:18:46;;;;;;;4.30;1.85;;;;;;;;;;10326714;28;20031;-42
2022/05/19 23:23:46;;;;;;;8.50;1.88;;;;;;;;;;10326078;28;20062;-42
2022/05/19 23:28:47;;;;;;;11.55;1.60;;;;;;;;;;10327902;28;20030;-42
2022/05/19 23:33:47;;;;;;;4.90;1.95;;;;;;;;;;10333743;28;20538;-42
2022/05/19 23:38:48;;;;;;;6.10;1.60;;;;;;;;;;10333262;28;20026;-42
2022/05/19 23:43:49;;;;;;;5.28;2.10;;;;;;;;;;10333283;28;20100;-42
2022/05/19 23:48:49;;;;;;;12.45;1.42;;;;;;;;;;10315539;28;20041;-42
2022/05/19 23:53:50;;;;;;;1.88;1.33;;;;;;;;;;10333077;28;20030;-42
2022/05/19 23:58:50;;;;;;;4.03;1.52;;;;;;;;;;10332665;28;20034;-42
